createdAt,value
2023-03-28T00:01:32.449Z,-0.31
2023-03-28T00:03:58.868Z,-0.33
2023-03-28T00:06:26.313Z,-0.36
2023-03-28T00:08:52.761Z,-0.40
2023-03-28T00:11:20.702Z,-0.41
2023-03-28T00:13:58.025Z,-0.42
2023-03-28T00:16:32.019Z,-0.42
2023-03-28T00:19:02.530Z,-0.41
2023-03-28T00:21:31.671Z,-0.41
2023-03-28T00:24:03.776Z,-0.44
2023-03-28T00:26:35.452Z,-0.48
2023-03-28T00:29:05.369Z,-0.50
2023-03-28T00:31:34.742Z,-0.50
2023-03-28T00:34:01.421Z,-0.50
2023-03-28T00:36:29.464Z,-0.56
2023-03-28T00:38:57.654Z,-0.56
2023-03-28T00:41:26.662Z,-0.57
2023-03-28T00:43:55.150Z,-0.59
2023-03-28T00:46:26.454Z,-0.63
2023-03-28T00:48:58.972Z,-0.64
2023-03-28T00:51:29.899Z,-0.68
2023-03-28T00:54:00.961Z,-0.70
2023-03-28T00:56:30.872Z,-0.74
2023-03-28T00:58:59.318Z,-0.78
2023-03-28T01:01:26.933Z,-0.84
2023-03-28T01:04:02.228Z,-0.89
2023-03-28T01:06:34.334Z,-0.91
2023-03-28T01:09:06.504Z,-0.93
2023-03-28T01:11:37.325Z,-0.93
2023-03-28T01:14:04.423Z,-0.89
2023-03-28T01:16:31.234Z,-0.87
2023-03-28T01:19:02.556Z,-0.85
2023-03-28T01:21:48.415Z,-0.77
2023-03-28T01:24:36.077Z,-0.74
2023-03-28T01:27:31.296Z,-0.74
2023-03-28T01:30:19.432Z,-0.74
2023-03-28T01:33:27.437Z,-0.72
2023-03-28T01:36:12.744Z,-0.74
2023-03-28T01:39:09.340Z,-0.74
2023-03-28T01:41:55.234Z,-0.72
2023-03-28T01:44:43.439Z,-0.78
2023-03-28T01:47:19.522Z,-0.81
2023-03-28T01:50:13.089Z,-0.85
2023-03-28T01:53:12.295Z,-0.88
2023-03-28T01:55:53.964Z,-0.92
2023-03-28T01:58:31.008Z,-0.92
2023-03-28T02:01:09.697Z,-0.92
2023-03-28T02:03:41.971Z,-0.92
2023-03-28T02:06:50.843Z,-0.89
2023-03-28T02:09:26.261Z,-0.92
2023-03-28T02:12:36.643Z,-0.97
2023-03-28T02:15:11.887Z,-0.99
2023-03-28T02:18:03.200Z,-1.00
2023-03-28T02:20:57.805Z,-1.02
2023-03-28T02:23:45.262Z,-1.06
2023-03-28T02:26:30.645Z,-1.03
2023-03-28T02:29:18.122Z,-1.01
2023-03-28T02:31:50.287Z,-0.99
2023-03-28T02:34:16.919Z,-0.99
2023-03-28T02:37:09.188Z,-0.96
2023-03-28T02:39:57.215Z,-0.97
2023-03-28T02:42:33.565Z,-0.98
2023-03-28T02:45:11.458Z,-1.01
2023-03-28T02:47:43.882Z,-1.02
2023-03-28T02:50:27.242Z,-1.01
2023-03-28T02:53:08.452Z,-1.04
2023-03-28T02:55:56.796Z,-1.07
2023-03-28T02:58:58.413Z,-1.04
2023-03-28T03:01:28.991Z,-1.04
2023-03-28T03:03:58.029Z,-1.04
2023-03-28T03:06:24.944Z,-1.04
2023-03-28T03:08:51.563Z,-1.06
2023-03-28T03:11:17.979Z,-1.07
2023-03-28T03:13:46.805Z,-1.05
2023-03-28T03:16:13.317Z,-1.04
2023-03-28T03:18:39.950Z,-1.06
2023-03-28T03:21:06.757Z,-1.04
2023-03-28T03:23:33.263Z,-1.06
2023-03-28T03:26:00.088Z,-1.06
2023-03-28T03:28:37.962Z,-1.02
2023-03-28T03:31:06.353Z,-1.02
2023-03-28T03:33:37.629Z,-1.00
2023-03-28T03:36:05.954Z,-0.98
2023-03-28T03:38:33.472Z,-0.97
2023-03-28T03:41:01.950Z,-0.95
2023-03-28T03:43:28.773Z,-0.96
2023-03-28T03:45:56.292Z,-0.99
2023-03-28T03:48:23.131Z,-0.99
2023-03-28T03:50:55.317Z,-0.99
2023-03-28T03:53:21.772Z,-0.99
2023-03-28T03:56:00.691Z,-0.99
2023-03-28T03:58:28.466Z,-1.01
2023-03-28T04:00:55.733Z,-1.07
2023-03-28T04:03:34.160Z,-1.09
2023-03-28T04:06:02.043Z,-1.13
2023-03-28T04:08:28.709Z,-1.16
2023-03-28T04:10:55.512Z,-1.17
2023-03-28T04:13:22.359Z,-1.19
2023-03-28T04:15:53.708Z,-1.20
2023-03-28T04:18:29.754Z,-1.21
2023-03-28T04:20:59.505Z,-1.23
2023-03-28T04:23:38.705Z,-1.23
2023-03-28T04:26:08.702Z,-1.24
2023-03-28T04:28:53.407Z,-1.23
2023-03-28T04:31:21.701Z,-1.26
2023-03-28T04:34:11.294Z,-1.28
2023-03-28T04:36:47.639Z,-1.29
2023-03-28T04:39:14.033Z,-1.32
2023-03-28T04:42:06.161Z,-1.32
2023-03-28T04:44:52.995Z,-1.33
2023-03-28T04:47:20.128Z,-1.35
2023-03-28T04:49:48.668Z,-1.40
2023-03-28T04:52:15.609Z,-1.42
2023-03-28T04:54:44.488Z,-1.45
2023-03-28T04:57:15.585Z,-1.44
2023-03-28T04:59:44.585Z,-1.46
2023-03-28T05:02:18.566Z,-1.52
2023-03-28T05:04:59.122Z,-1.58
2023-03-28T05:07:26.255Z,-1.64
2023-03-28T05:09:53.130Z,-1.65
2023-03-28T05:12:19.575Z,-1.63
2023-03-28T05:15:07.343Z,-1.63
2023-03-28T05:17:44.964Z,-1.67
2023-03-28T05:20:26.484Z,-1.72
2023-03-28T05:22:56.010Z,-1.77
2023-03-28T05:25:23.699Z,-1.81
2023-03-28T05:27:51.287Z,-1.84
2023-03-28T05:30:19.308Z,-1.86
2023-03-28T05:32:50.298Z,-1.85
2023-03-28T05:35:16.874Z,-1.83
2023-03-28T05:37:46.799Z,-1.80
2023-03-28T05:40:14.368Z,-1.76
2023-03-28T05:42:42.901Z,-1.73
2023-03-28T05:45:14.966Z,-1.70
2023-03-28T05:47:56.225Z,-1.68
2023-03-28T05:50:24.184Z,-1.65
2023-03-28T05:52:55.721Z,-1.58
2023-03-28T05:55:22.345Z,-1.50
2023-03-28T05:57:48.790Z,-1.41
2023-03-28T06:00:18.602Z,-1.33
2023-03-28T06:02:45.404Z,-1.29
2023-03-28T06:05:13.809Z,-1.23
2023-03-28T06:07:43.031Z,-1.16
2023-03-28T06:10:15.521Z,-1.07
2023-03-28T06:12:51.205Z,-0.98
2023-03-28T06:15:17.658Z,-0.88
2023-03-28T06:17:46.804Z,-0.78
2023-03-28T06:20:14.317Z,-0.70
2023-03-28T06:22:41.297Z,-0.59
2023-03-28T06:25:10.417Z,-0.50
2023-03-28T06:27:37.152Z,-0.38
2023-03-28T06:30:04.766Z,-0.26
2023-03-28T06:32:36.638Z,-0.14
2023-03-28T06:35:03.404Z,-0.02
2023-03-28T06:37:29.875Z,0.11
2023-03-28T06:40:03.518Z,0.22
2023-03-28T06:42:30.719Z,0.38
2023-03-28T06:45:14.377Z,0.53
2023-03-28T06:47:50.823Z,0.69
2023-03-28T06:50:20.887Z,0.88
2023-03-28T06:52:53.178Z,1.09
2023-03-28T06:55:19.747Z,1.30
2023-03-28T06:57:46.176Z,1.53
2023-03-28T07:00:25.035Z,1.76
2023-03-28T07:03:17.940Z,1.98
2023-03-28T07:05:45.119Z,2.08
2023-03-28T07:08:13.263Z,2.10
2023-03-28T07:10:41.259Z,2.16
2023-03-28T07:13:08.693Z,2.22
2023-03-28T07:15:42.312Z,2.25
2023-03-28T07:18:11.469Z,2.29
2023-03-28T07:20:40.028Z,2.34
2023-03-28T07:23:06.529Z,2.49
2023-03-28T07:25:33.305Z,2.97
2023-03-28T07:28:00.370Z,3.61
2023-03-28T07:30:27.024Z,4.44
2023-03-28T07:33:02.167Z,5.39
2023-03-28T07:35:34.473Z,6.65
2023-03-28T07:38:01.095Z,8.13
2023-03-28T07:40:36.202Z,9.19
2023-03-28T07:43:03.556Z,9.98
2023-03-28T07:45:30.023Z,10.59
2023-03-28T07:47:56.535Z,10.82
2023-03-28T07:50:24.848Z,10.55
2023-03-28T07:52:57.415Z,11.00
2023-03-28T07:55:26.189Z,11.65
2023-03-28T07:57:53.304Z,11.85
2023-03-28T08:00:27.524Z,11.95
2023-03-28T08:03:19.829Z,12.18
2023-03-28T08:05:51.643Z,11.52
2023-03-28T08:08:20.828Z,10.07
2023-03-28T08:10:59.347Z,9.19
2023-03-28T08:13:27.059Z,9.06
2023-03-28T08:15:58.740Z,9.21
2023-03-28T08:18:27.059Z,9.89
2023-03-28T08:21:00.045Z,10.99
2023-03-28T08:23:29.476Z,11.56
2023-03-28T08:26:14.536Z,11.83
2023-03-28T08:28:45.966Z,12.62
2023-03-28T08:31:14.809Z,12.07
2023-03-28T08:33:45.018Z,10.78
2023-03-28T08:36:15.618Z,9.60
2023-03-28T08:38:44.595Z,9.08
2023-03-28T08:41:38.121Z,8.96
2023-03-28T08:44:24.272Z,9.38
2023-03-28T08:46:57.481Z,9.86
2023-03-28T08:49:24.451Z,9.86
2023-03-28T08:52:00.706Z,9.81
2023-03-28T08:54:31.421Z,9.81
2023-03-28T08:57:01.608Z,10.17
2023-03-28T08:59:46.684Z,10.31
2023-03-28T09:02:29.706Z,10.10
2023-03-28T09:05:11.890Z,9.86
2023-03-28T09:08:02.787Z,9.40
2023-03-28T09:10:42.521Z,9.28
2023-03-28T09:13:31.340Z,9.52
2023-03-28T09:16:22.858Z,9.52
2023-03-28T09:19:48.873Z,9.03
2023-03-28T09:22:58.424Z,8.54
2023-03-28T09:25:51.625Z,8.47
2023-03-28T09:28:34.344Z,8.44
2023-03-28T09:31:02.024Z,8.64
2023-03-28T09:33:39.048Z,8.38
2023-03-28T09:36:17.573Z,8.23
2023-03-28T09:38:54.834Z,8.47
2023-03-28T09:41:29.398Z,8.43
2023-03-28T09:44:28.636Z,8.07
2023-03-28T09:47:21.330Z,7.94
2023-03-28T09:50:09.561Z,7.86
2023-03-28T09:52:41.436Z,7.72
2023-03-28T09:55:20.702Z,7.78
2023-03-28T09:58:11.347Z,7.78
2023-03-28T10:01:00.941Z,7.74
2023-03-28T10:03:55.842Z,7.92
2023-03-28T10:06:42.821Z,8.05
2023-03-28T10:09:18.054Z,7.90
2023-03-28T10:12:04.739Z,7.74
2023-03-28T10:14:36.723Z,7.63
2023-03-28T10:17:06.997Z,7.72
2023-03-28T10:19:44.579Z,7.96
2023-03-28T10:22:30.927Z,7.78
2023-03-28T10:24:58.472Z,7.89
2023-03-28T10:27:31.775Z,7.97
2023-03-28T10:30:12.234Z,8.05
2023-03-28T10:32:38.932Z,8.01
2023-03-28T10:35:26.891Z,7.93
2023-03-28T10:38:05.269Z,7.77
2023-03-28T10:40:59.306Z,7.61
2023-03-28T10:43:38.563Z,7.59
2023-03-28T10:46:37.259Z,7.72
2023-03-28T10:49:18.889Z,7.42
2023-03-28T10:51:55.636Z,7.43
2023-03-28T10:54:47.991Z,7.36
2023-03-28T10:58:19.224Z,7.34
2023-03-28T11:01:09.135Z,7.57
2023-03-28T11:04:27.370Z,7.51
2023-03-28T11:07:08.391Z,7.19
2023-03-28T11:10:24.183Z,7.38
2023-03-28T11:13:37.663Z,7.43
2023-03-28T11:16:12.808Z,7.44
2023-03-28T11:19:29.337Z,7.75
2023-03-28T11:22:14.869Z,7.97
2023-03-28T11:25:02.350Z,8.19
2023-03-28T11:28:09.673Z,8.58
2023-03-28T11:30:42.835Z,8.61
2023-03-28T11:33:47.042Z,8.67
2023-03-28T11:36:42.425Z,8.78
2023-03-28T11:39:24.299Z,8.73
2023-03-28T11:41:53.720Z,8.76
2023-03-28T11:44:37.338Z,8.64
2023-03-28T11:47:18.461Z,8.61
2023-03-28T11:49:54.266Z,8.32
2023-03-28T11:53:01.839Z,8.53
2023-03-28T11:55:38.182Z,8.77
2023-03-28T11:58:26.103Z,8.72
2023-03-28T12:01:12.328Z,8.98
2023-03-28T12:04:08.851Z,9.09
2023-03-28T12:06:40.548Z,8.85
2023-03-28T12:09:30.287Z,8.95
2023-03-28T12:12:11.578Z,8.86
2023-03-28T12:15:07.341Z,8.93
2023-03-28T12:17:59.371Z,9.06
2023-03-28T12:20:32.723Z,9.20
2023-03-28T12:23:11.677Z,9.13
2023-03-28T12:26:23.986Z,9.01
2023-03-28T12:28:54.473Z,8.77
2023-03-28T12:31:41.529Z,8.68
2023-03-28T12:34:30.059Z,8.77
2023-03-28T12:37:26.474Z,8.73
2023-03-28T12:40:35.158Z,8.74
2023-03-28T12:43:03.741Z,8.78
2023-03-28T12:45:33.435Z,8.84
2023-03-28T12:48:08.991Z,8.77
2023-03-28T12:50:58.861Z,8.84
2023-03-28T12:53:25.850Z,8.74
2023-03-28T12:55:52.733Z,8.69
2023-03-28T12:58:30.211Z,8.77
2023-03-28T13:01:57.831Z,8.72
2023-03-28T13:04:41.806Z,8.54
2023-03-28T13:07:23.335Z,8.50
2023-03-28T13:10:20.641Z,8.34
2023-03-28T13:13:13.493Z,8.17
2023-03-28T13:15:54.246Z,8.07
2023-03-28T13:18:26.168Z,7.98
2023-03-28T13:20:53.086Z,7.91
2023-03-28T13:23:34.563Z,7.81
2023-03-28T13:26:03.843Z,7.83
2023-03-28T13:28:35.201Z,7.74
2023-03-28T13:31:11.667Z,7.69
2023-03-28T13:33:45.897Z,7.69
2023-03-28T13:36:17.383Z,7.68
2023-03-28T13:38:59.847Z,7.63
2023-03-28T13:41:49.271Z,7.66
2023-03-28T13:44:22.872Z,7.70
2023-03-28T13:46:51.688Z,7.84
2023-03-28T13:49:19.633Z,7.98
2023-03-28T13:51:57.511Z,8.08
2023-03-28T13:54:25.860Z,8.19
2023-03-28T13:56:53.401Z,8.33
2023-03-28T13:59:25.990Z,8.42
2023-03-28T14:01:57.693Z,8.55
2023-03-28T14:04:29.822Z,8.81
2023-03-28T14:06:57.138Z,9.06
2023-03-28T14:09:32.555Z,9.10
2023-03-28T14:12:06.218Z,8.96
2023-03-28T14:14:37.020Z,9.11
2023-03-28T14:17:06.182Z,9.27
2023-03-28T14:19:41.527Z,9.41
2023-03-28T14:22:14.987Z,9.30
2023-03-28T14:24:43.509Z,9.09
2023-03-28T14:27:15.392Z,9.05
2023-03-28T14:29:53.018Z,8.99
2023-03-28T14:32:26.938Z,8.97
2023-03-28T14:34:55.680Z,8.90
2023-03-28T14:37:22.775Z,8.89
2023-03-28T14:39:50.274Z,8.79
2023-03-28T14:42:18.730Z,8.71
2023-03-28T14:44:50.740Z,8.68
2023-03-28T14:47:26.906Z,8.72
2023-03-28T14:49:54.220Z,8.74
2023-03-28T14:52:34.386Z,8.73
2023-03-28T14:55:01.890Z,8.76
2023-03-28T14:57:29.502Z,8.76
2023-03-28T14:59:57.611Z,8.74
2023-03-28T15:02:29.147Z,8.75
2023-03-28T15:05:03.085Z,8.83
2023-03-28T15:07:33.478Z,8.84
2023-03-28T15:10:06.585Z,8.77
2023-03-28T15:12:39.320Z,8.75
2023-03-28T15:15:06.660Z,8.75
2023-03-28T15:17:37.340Z,8.77
2023-03-28T15:20:05.022Z,8.77
2023-03-28T15:22:33.392Z,8.84
2023-03-28T15:25:00.226Z,8.89
2023-03-28T15:27:33.196Z,8.98
2023-03-28T15:30:12.548Z,9.02
2023-03-28T15:32:39.253Z,9.07
2023-03-28T15:35:19.926Z,9.02
2023-03-28T15:37:46.660Z,8.96
2023-03-28T15:40:37.792Z,8.97
2023-03-28T15:43:05.111Z,8.90
2023-03-28T15:45:44.473Z,8.71
2023-03-28T15:48:16.283Z,8.70
2023-03-28T15:50:48.167Z,8.66
2023-03-28T15:53:16.503Z,8.62
2023-03-28T15:55:44.303Z,8.61
2023-03-28T15:58:17.363Z,8.54
2023-03-28T16:00:49.282Z,8.48
2023-03-28T16:03:32.516Z,8.45
2023-03-28T16:06:26.839Z,8.41
2023-03-28T16:09:14.103Z,8.39
2023-03-28T16:11:41.560Z,8.39
2023-03-28T16:14:36.179Z,8.31
2023-03-28T16:17:28.071Z,8.25
2023-03-28T16:20:13.875Z,8.20
2023-03-28T16:22:40.593Z,8.19
2023-03-28T16:25:07.459Z,8.14
2023-03-28T16:27:35.409Z,8.08
2023-03-28T16:30:07.582Z,8.05
2023-03-28T16:32:34.096Z,8.00
2023-03-28T16:35:00.626Z,7.95
2023-03-28T16:37:27.462Z,7.91
2023-03-28T16:39:53.982Z,7.87
2023-03-28T16:42:21.003Z,7.83
2023-03-28T16:44:47.573Z,7.70
2023-03-28T16:47:15.522Z,7.57
2023-03-28T16:49:42.000Z,7.46
2023-03-28T16:52:08.421Z,7.34
2023-03-28T16:54:34.846Z,7.24
2023-03-28T16:57:01.689Z,7.13
2023-03-28T16:59:28.167Z,7.07
2023-03-28T17:01:54.605Z,6.97
2023-03-28T17:04:21.257Z,6.88
2023-03-28T17:06:47.643Z,6.84
2023-03-28T17:09:14.122Z,6.82
2023-03-28T17:11:42.723Z,6.80
2023-03-28T17:14:09.505Z,6.79
2023-03-28T17:16:37.091Z,6.80
2023-03-28T17:19:03.523Z,6.79
2023-03-28T17:21:29.996Z,6.78
2023-03-28T17:23:56.459Z,6.75
2023-03-28T17:26:22.869Z,6.75
2023-03-28T17:28:50.775Z,6.63
2023-03-28T17:31:19.895Z,6.55
2023-03-28T17:33:47.399Z,6.52
2023-03-28T17:36:25.903Z,6.49
2023-03-28T17:38:54.466Z,6.48
2023-03-28T17:41:25.006Z,6.45
2023-03-28T17:43:52.560Z,6.45
2023-03-28T17:46:19.329Z,6.45
2023-03-28T17:48:45.764Z,6.45
2023-03-28T17:51:12.368Z,6.44
2023-03-28T17:53:40.143Z,6.45
2023-03-28T17:56:09.716Z,6.45
2023-03-28T17:58:37.580Z,6.43
2023-03-28T18:01:09.428Z,6.42
2023-03-28T18:03:36.869Z,6.43
2023-03-28T18:06:29.598Z,6.42
2023-03-28T18:08:56.217Z,6.42
2023-03-28T18:11:22.944Z,6.39
2023-03-28T18:13:52.468Z,6.39
2023-03-28T18:16:19.252Z,6.39
2023-03-28T18:18:45.689Z,6.38
2023-03-28T18:21:12.685Z,6.37
2023-03-28T18:23:39.564Z,6.38
2023-03-28T18:26:06.746Z,6.39
2023-03-28T18:28:33.712Z,6.38
2023-03-28T18:31:08.404Z,6.39
2023-03-28T18:33:35.054Z,6.38
2023-03-28T18:36:01.673Z,6.40
2023-03-28T18:38:28.444Z,6.39
2023-03-28T18:40:54.981Z,6.38
2023-03-28T18:43:21.518Z,6.40
2023-03-28T18:45:54.569Z,6.39
2023-03-28T18:48:21.579Z,6.36
2023-03-28T18:50:48.086Z,6.37
2023-03-28T18:53:14.794Z,6.36
2023-03-28T18:55:42.159Z,6.34
2023-03-28T18:58:11.304Z,6.34
2023-03-28T19:00:38.559Z,6.33
2023-03-28T19:03:05.126Z,6.34
2023-03-28T19:05:33.807Z,6.33
2023-03-28T19:08:00.207Z,6.33
2023-03-28T19:10:27.026Z,6.33
2023-03-28T19:12:54.337Z,6.32
2023-03-28T19:15:20.904Z,6.33
2023-03-28T19:17:47.538Z,6.32
2023-03-28T19:20:15.403Z,6.30
2023-03-28T19:22:42.466Z,6.29
2023-03-28T19:25:09.790Z,6.26
2023-03-28T19:27:37.265Z,6.25
2023-03-28T19:30:05.074Z,6.22
2023-03-28T19:32:32.659Z,6.19
2023-03-28T19:34:59.241Z,6.16
2023-03-28T19:37:25.726Z,6.13
2023-03-28T19:39:52.214Z,6.09
2023-03-28T19:42:20.212Z,6.05
2023-03-28T19:44:46.678Z,6.04
2023-03-28T19:47:13.083Z,5.97
2023-03-28T19:49:39.842Z,5.90
2023-03-28T19:52:09.657Z,5.87
2023-03-28T19:54:37.082Z,5.84
2023-03-28T19:57:06.019Z,5.79
2023-03-28T19:59:33.961Z,5.77
2023-03-28T20:02:00.601Z,5.76
2023-03-28T20:04:28.157Z,5.71
2023-03-28T20:06:54.691Z,5.70
2023-03-28T20:09:21.560Z,5.67
2023-03-28T20:11:48.024Z,5.62
2023-03-28T20:14:20.061Z,5.60
2023-03-28T20:16:47.845Z,5.58
2023-03-28T20:19:14.354Z,5.56
2023-03-28T20:21:40.884Z,5.54
2023-03-28T20:24:07.687Z,5.51
2023-03-28T20:26:34.143Z,5.49
2023-03-28T20:29:01.461Z,5.49
2023-03-28T20:31:29.029Z,5.48
2023-03-28T20:33:56.130Z,5.45
2023-03-28T20:36:23.064Z,5.45
2023-03-28T20:38:49.590Z,5.45
2023-03-28T20:41:17.994Z,5.43
2023-03-28T20:43:46.989Z,5.42
2023-03-28T20:46:18.601Z,5.40
2023-03-28T20:48:46.813Z,5.38
2023-03-28T20:51:16.915Z,5.34
2023-03-28T20:53:45.194Z,5.32
2023-03-28T20:56:13.248Z,5.30
2023-03-28T20:58:40.700Z,5.28
2023-03-28T21:01:09.206Z,5.26
2023-03-28T21:03:51.937Z,5.23
2023-03-28T21:06:25.878Z,5.22
2023-03-28T21:08:54.447Z,5.19
2023-03-28T21:11:23.571Z,5.18
2023-03-28T21:13:50.366Z,5.17
2023-03-28T21:16:17.966Z,5.15
2023-03-28T21:18:45.367Z,5.11
2023-03-28T21:21:13.579Z,5.09
2023-03-28T21:23:40.967Z,5.06
2023-03-28T21:26:09.497Z,5.03
2023-03-28T21:28:36.633Z,5.02
2023-03-28T21:31:10.163Z,5.00
2023-03-28T21:33:38.227Z,4.97
2023-03-28T21:36:07.151Z,4.94
2023-03-28T21:38:34.483Z,4.92
2023-03-28T21:41:01.107Z,4.89
2023-03-28T21:43:27.766Z,4.89
2023-03-28T21:45:54.195Z,4.89
2023-03-28T21:48:21.116Z,4.87
2023-03-28T21:50:49.567Z,4.87
2023-03-28T21:53:16.129Z,4.87
2023-03-28T21:55:42.570Z,4.88
2023-03-28T21:58:08.956Z,4.88
2023-03-28T22:00:35.394Z,4.88
2023-03-28T22:03:01.878Z,4.88
2023-03-28T22:05:29.969Z,4.87
2023-03-28T22:07:58.448Z,4.87
2023-03-28T22:10:29.293Z,4.87
2023-03-28T22:12:58.697Z,4.85
2023-03-28T22:15:25.818Z,4.87
2023-03-28T22:17:58.106Z,4.87
2023-03-28T22:20:26.980Z,4.87
2023-03-28T22:22:54.363Z,4.86
2023-03-28T22:25:22.459Z,4.86
2023-03-28T22:27:48.922Z,4.87
2023-03-28T22:30:15.331Z,4.87
2023-03-28T22:32:41.855Z,4.88
2023-03-28T22:35:08.625Z,4.88
2023-03-28T22:37:35.501Z,4.88
2023-03-28T22:40:02.167Z,4.90
2023-03-28T22:42:28.773Z,4.89
2023-03-28T22:44:55.212Z,4.87
2023-03-28T22:47:21.602Z,4.86
2023-03-28T22:49:48.035Z,4.84
2023-03-28T22:52:14.523Z,4.82
2023-03-28T22:54:42.529Z,4.81
2023-03-28T22:57:09.251Z,4.81
2023-03-28T22:59:36.384Z,4.82
2023-03-28T23:02:03.484Z,4.82
2023-03-28T23:04:32.934Z,4.82
2023-03-28T23:06:59.387Z,4.81
2023-03-28T23:09:27.842Z,4.82
2023-03-28T23:11:55.017Z,4.83
2023-03-28T23:14:22.101Z,4.82
2023-03-28T23:16:48.761Z,4.80
2023-03-28T23:19:16.340Z,4.80
2023-03-28T23:21:43.082Z,4.80
2023-03-28T23:24:09.653Z,4.83
2023-03-28T23:26:36.070Z,4.82
2023-03-28T23:29:02.785Z,4.84
2023-03-28T23:31:29.275Z,4.82
2023-03-28T23:33:55.934Z,4.81
2023-03-28T23:36:22.456Z,4.79
2023-03-28T23:38:48.972Z,4.80
2023-03-28T23:41:15.416Z,4.80
2023-03-28T23:43:41.950Z,4.80
2023-03-28T23:46:08.911Z,4.80
2023-03-28T23:48:36.215Z,4.80
2023-03-28T23:51:03.058Z,4.81
2023-03-28T23:53:29.896Z,4.81
2023-03-28T23:55:56.382Z,4.83
2023-03-28T23:58:22.769Z,4.83
